sensor_id;sensor_type;location;lat;lon;timestamp;temperature;humidity
29803;DHT22;16702;50.898;4.662;2022-12-10T00:01:40;3.30;99.90
29803;DHT22;16702;50.898;4.662;2022-12-10T00:04:12;3.40;99.90
29803;DHT22;16702;50.898;4.662;2022-12-10T00:06:43;3.10;99.90
29803;DHT22;16702;50.898;4.662;2022-12-10T00:09:16;3.20;99.90
29803;DHT22;16702;50.898;4.662;2022-12-10T00:11:49;3.30;99.90
29803;DHT22;16702;50.898;4.662;2022-12-10T00:14:19;3.10;99.90
29803;DHT22;16702;50.898;4.662;2022-12-10T00:16:49;3.10;99.90
29803;DHT22;16702;50.898;4.662;2022-12-10T00:19:20;3.10;99.90
29803;DHT22;16702;50.898;4.662;2022-12-10T00:21:50;3.10;99.90
29803;DHT22;16702;50.898;4.662;2022-12-10T00:24:20;3.20;99.90
29803;DHT22;16702;50.898;4.662;2022-12-10T00:26:53;3.20;99.90
29803;DHT22;16702;50.898;4.662;2022-12-10T00:29:24;3.30;99.90
29803;DHT22;16702;50.898;4.662;2022-12-10T00:31:54;3.20;99.90
29803;DHT22;16702;50.898;4.662;2022-12-10T00:34:24;3.30;99.90
29803;DHT22;16702;50.898;4.662;2022-12-10T00:36:55;3.20;99.90
29803;DHT22;16702;50.898;4.662;2022-12-10T00:39:25;3.10;99.90
29803;DHT22;16702;50.898;4.662;2022-12-10T00:41:58;3.20;99.90
29803;DHT22;16702;50.898;4.662;2022-12-10T00:44:29;3.20;99.90
29803;DHT22;16702;50.898;4.662;2022-12-10T00:46:59;3.20;99.90
29803;DHT22;16702;50.898;4.662;2022-12-10T00:49:29;3.20;99.90
29803;DHT22;16702;50.898;4.662;2022-12-10T00:52:00;3.20;99.90
29803;DHT22;16702;50.898;4.662;2022-12-10T00:54:30;3.20;99.90
29803;DHT22;16702;50.898;4.662;2022-12-10T00:57:03;3.20;99.90
29803;DHT22;16702;50.898;4.662;2022-12-10T00:59:34;3.20;99.90
29803;DHT22;16702;50.898;4.662;2022-12-10T01:02:04;3.20;99.90
29803;DHT22;16702;50.898;4.662;2022-12-10T01:04:34;3.30;99.90
29803;DHT22;16702;50.898;4.662;2022-12-10T01:07:07;3.20;99.90
29803;DHT22;16702;50.898;4.662;2022-12-10T01:09:38;3.20;99.90
29803;DHT22;16702;50.898;4.662;2022-12-10T01:12:11;3.40;99.90
29803;DHT22;16702;50.898;4.662;2022-12-10T01:14:42;3.20;99.90
29803;DHT22;16702;50.898;4.662;2022-12-10T01:17:12;3.10;99.90
29803;DHT22;16702;50.898;4.662;2022-12-10T01:19:44;3.00;99.90
29803;DHT22;16702;50.898;4.662;2022-12-10T01:22:14;3.00;99.90
29803;DHT22;16702;50.898;4.662;2022-12-10T01:24:45;3.20;99.90
29803;DHT22;16702;50.898;4.662;2022-12-10T01:27:18;3.10;99.90
29803;DHT22;16702;50.898;4.662;2022-12-10T01:29:48;3.20;99.90
29803;DHT22;16702;50.898;4.662;2022-12-10T01:32:18;3.20;99.90
29803;DHT22;16702;50.898;4.662;2022-12-10T01:34:49;3.00;99.90
29803;DHT22;16702;50.898;4.662;2022-12-10T01:37:19;3.10;99.90
29803;DHT22;16702;50.898;4.662;2022-12-10T01:39:49;3.10;99.90
29803;DHT22;16702;50.898;4.662;2022-12-10T01:42:22;3.00;99.90
29803;DHT22;16702;50.898;4.662;2022-12-10T01:45:04;2.90;99.90
29803;DHT22;16702;50.898;4.662;2022-12-10T01:47:34;2.90;99.90
29803;DHT22;16702;50.898;4.662;2022-12-10T01:50:07;2.90;99.90
29803;DHT22;16702;50.898;4.662;2022-12-10T01:52:38;2.90;99.90
29803;DHT22;16702;50.898;4.662;2022-12-10T01:55:38;2.80;99.90
29803;DHT22;16702;50.898;4.662;2022-12-10T01:58:13;2.80;99.90
29803;DHT22;16702;50.898;4.662;2022-12-10T02:00:59;2.90;99.90
29803;DHT22;16702;50.898;4.662;2022-12-10T02:03:39;2.90;99.90
29803;DHT22;16702;50.898;4.662;2022-12-10T02:06:20;2.80;99.90
29803;DHT22;16702;50.898;4.662;2022-12-10T02:09:03;2.90;99.90
29803;DHT22;16702;50.898;4.662;2022-12-10T02:11:40;2.90;99.90
29803;DHT22;16702;50.898;4.662;2022-12-10T02:14:20;2.90;99.90
29803;DHT22;16702;50.898;4.662;2022-12-10T02:16:56;2.90;99.90
29803;DHT22;16702;50.898;4.662;2022-12-10T02:19:52;2.90;99.90
29803;DHT22;16702;50.898;4.662;2022-12-10T02:22:29;3.00;99.90
29803;DHT22;16702;50.898;4.662;2022-12-10T02:25:02;2.90;99.90
29803;DHT22;16702;50.898;4.662;2022-12-10T02:27:42;2.90;99.90
29803;DHT22;16702;50.898;4.662;2022-12-10T02:30:18;3.00;99.90
29803;DHT22;16702;50.898;4.662;2022-12-10T02:32:50;2.90;99.90
29803;DHT22;16702;50.898;4.662;2022-12-10T02:35:24;2.90;99.90
29803;DHT22;16702;50.898;4.662;2022-12-10T02:37:56;2.80;99.90
29803;DHT22;16702;50.898;4.662;2022-12-10T02:40:31;2.90;99.90
29803;DHT22;16702;50.898;4.662;2022-12-10T02:43:06;2.90;99.90
29803;DHT22;16702;50.898;4.662;2022-12-10T02:45:41;2.90;99.90
29803;DHT22;16702;50.898;4.662;2022-12-10T02:48:13;2.90;99.90
29803;DHT22;16702;50.898;4.662;2022-12-10T02:50:44;2.90;99.90
29803;DHT22;16702;50.898;4.662;2022-12-10T02:53:14;2.90;99.90
29803;DHT22;16702;50.898;4.662;2022-12-10T02:55:53;2.90;99.90
29803;DHT22;16702;50.898;4.662;2022-12-10T02:58:30;2.90;99.90
29803;DHT22;16702;50.898;4.662;2022-12-10T03:01:15;3.00;99.90
29803;DHT22;16702;50.898;4.662;2022-12-10T03:03:52;2.90;99.90
29803;DHT22;16702;50.898;4.662;2022-12-10T03:06:27;3.00;99.90
29803;DHT22;16702;50.898;4.662;2022-12-10T03:09:03;2.90;99.90
29803;DHT22;16702;50.898;4.662;2022-12-10T03:11:34;3.00;99.90
29803;DHT22;16702;50.898;4.662;2022-12-10T03:14:08;2.80;99.90
29803;DHT22;16702;50.898;4.662;2022-12-10T03:16:46;2.90;99.90
29803;DHT22;16702;50.898;4.662;2022-12-10T03:19:20;3.00;99.90
29803;DHT22;16702;50.898;4.662;2022-12-10T03:21:53;2.80;99.90
29803;DHT22;16702;50.898;4.662;2022-12-10T03:24:25;2.80;99.90
29803;DHT22;16702;50.898;4.662;2022-12-10T03:26:57;2.90;99.90
29803;DHT22;16702;50.898;4.662;2022-12-10T03:29:32;2.70;99.90
29803;DHT22;16702;50.898;4.662;2022-12-10T03:32:06;2.70;99.90
29803;DHT22;16702;50.898;4.662;2022-12-10T03:34:38;2.90;99.90
29803;DHT22;16702;50.898;4.662;2022-12-10T03:37:09;2.80;99.90
29803;DHT22;16702;50.898;4.662;2022-12-10T03:39:40;2.70;99.90
29803;DHT22;16702;50.898;4.662;2022-12-10T03:42:11;2.80;99.90
29803;DHT22;16702;50.898;4.662;2022-12-10T03:44:41;2.80;99.90
29803;DHT22;16702;50.898;4.662;2022-12-10T03:47:14;2.80;99.90
29803;DHT22;16702;50.898;4.662;2022-12-10T03:49:45;2.70;99.90
29803;DHT22;16702;50.898;4.662;2022-12-10T03:52:15;2.80;99.90
29803;DHT22;16702;50.898;4.662;2022-12-10T03:54:45;2.80;99.90
29803;DHT22;16702;50.898;4.662;2022-12-10T03:57:16;2.80;99.90
29803;DHT22;16702;50.898;4.662;2022-12-10T03:59:46;2.80;99.90
29803;DHT22;16702;50.898;4.662;2022-12-10T04:02:19;2.80;99.90
29803;DHT22;16702;50.898;4.662;2022-12-10T04:04:49;2.80;99.90
29803;DHT22;16702;50.898;4.662;2022-12-10T04:07:20;2.90;99.90
29803;DHT22;16702;50.898;4.662;2022-12-10T04:09:50;2.80;99.90
29803;DHT22;16702;50.898;4.662;2022-12-10T04:12:20;2.80;99.90
29803;DHT22;16702;50.898;4.662;2022-12-10T04:14:51;2.70;99.90
29803;DHT22;16702;50.898;4.662;2022-12-10T04:17:36;2.80;99.90
29803;DHT22;16702;50.898;4.662;2022-12-10T04:20:07;2.80;99.90
29803;DHT22;16702;50.898;4.662;2022-12-10T04:22:58;2.80;99.90
29803;DHT22;16702;50.898;4.662;2022-12-10T04:25:41;2.80;99.90
29803;DHT22;16702;50.898;4.662;2022-12-10T04:28:24;2.70;99.90
29803;DHT22;16702;50.898;4.662;2022-12-10T04:30:54;2.70;99.90
29803;DHT22;16702;50.898;4.662;2022-12-10T04:33:27;2.80;99.90
29803;DHT22;16702;50.898;4.662;2022-12-10T04:35:57;2.80;99.90
29803;DHT22;16702;50.898;4.662;2022-12-10T04:38:28;2.80;99.90
29803;DHT22;16702;50.898;4.662;2022-12-10T04:40:58;2.80;99.90
29803;DHT22;16702;50.898;4.662;2022-12-10T04:43:28;2.80;99.90
29803;DHT22;16702;50.898;4.662;2022-12-10T04:45:59;2.80;99.90
29803;DHT22;16702;50.898;4.662;2022-12-10T04:48:32;2.90;99.90
29803;DHT22;16702;50.898;4.662;2022-12-10T04:51:02;2.80;99.90
29803;DHT22;16702;50.898;4.662;2022-12-10T04:53:33;2.80;99.90
29803;DHT22;16702;50.898;4.662;2022-12-10T04:56:04;2.70;99.90
29803;DHT22;16702;50.898;4.662;2022-12-10T04:58:34;2.60;99.90
29803;DHT22;16702;50.898;4.662;2022-12-10T05:01:06;2.70;99.90
29803;DHT22;16702;50.898;4.662;2022-12-10T05:03:40;2.60;99.90
29803;DHT22;16702;50.898;4.662;2022-12-10T05:06:12;2.60;99.90
29803;DHT22;16702;50.898;4.662;2022-12-10T05:08:43;2.70;99.90
29803;DHT22;16702;50.898;4.662;2022-12-10T05:11:16;2.60;99.90
29803;DHT22;16702;50.898;4.662;2022-12-10T05:13:47;2.70;99.90
29803;DHT22;16702;50.898;4.662;2022-12-10T05:16:18;2.70;99.90
29803;DHT22;16702;50.898;4.662;2022-12-10T05:18:52;2.70;99.90
29803;DHT22;16702;50.898;4.662;2022-12-10T05:21:24;2.70;99.90
29803;DHT22;16702;50.898;4.662;2022-12-10T05:24:16;2.70;99.90
29803;DHT22;16702;50.898;4.662;2022-12-10T05:26:44;2.80;99.90
29803;DHT22;16702;50.898;4.662;2022-12-10T05:29:19;2.90;99.90
29803;DHT22;16702;50.898;4.662;2022-12-10T05:31:49;2.70;99.90
29803;DHT22;16702;50.898;4.662;2022-12-10T05:34:22;2.60;99.90
29803;DHT22;16702;50.898;4.662;2022-12-10T05:36:53;2.70;99.90
29803;DHT22;16702;50.898;4.662;2022-12-10T05:39:24;2.70;99.90
29803;DHT22;16702;50.898;4.662;2022-12-10T05:41:54;2.70;99.90
29803;DHT22;16702;50.898;4.662;2022-12-10T05:44:24;2.70;99.90
29803;DHT22;16702;50.898;4.662;2022-12-10T05:46:54;2.60;99.90
29803;DHT22;16702;50.898;4.662;2022-12-10T05:49:27;2.50;99.90
29803;DHT22;16702;50.898;4.662;2022-12-10T05:51:58;2.60;99.90
29803;DHT22;16702;50.898;4.662;2022-12-10T05:54:28;2.50;99.90
29803;DHT22;16702;50.898;4.662;2022-12-10T05:56:58;2.60;99.90
29803;DHT22;16702;50.898;4.662;2022-12-10T05:59:29;2.60;99.90
29803;DHT22;16702;50.898;4.662;2022-12-10T06:01:59;2.60;99.90
29803;DHT22;16702;50.898;4.662;2022-12-10T06:04:32;2.60;99.90
29803;DHT22;16702;50.898;4.662;2022-12-10T06:07:03;2.40;99.90
29803;DHT22;16702;50.898;4.662;2022-12-10T06:09:37;2.60;99.90
29803;DHT22;16702;50.898;4.662;2022-12-10T06:12:08;2.60;99.90
29803;DHT22;16702;50.898;4.662;2022-12-10T06:14:38;2.50;99.90
29803;DHT22;16702;50.898;4.662;2022-12-10T06:17:08;2.50;99.90
29803;DHT22;16702;50.898;4.662;2022-12-10T06:19:42;2.50;99.90
29803;DHT22;16702;50.898;4.662;2022-12-10T06:22:12;2.50;99.90
29803;DHT22;16702;50.898;4.662;2022-12-10T06:24:42;2.70;99.90
29803;DHT22;16702;50.898;4.662;2022-12-10T06:27:13;2.50;99.90
29803;DHT22;16702;50.898;4.662;2022-12-10T06:29:44;2.50;99.90
29803;DHT22;16702;50.898;4.662;2022-12-10T06:32:14;2.60;99.90
29803;DHT22;16702;50.898;4.662;2022-12-10T06:34:48;2.50;99.90
29803;DHT22;16702;50.898;4.662;2022-12-10T06:37:18;2.50;99.90
29803;DHT22;16702;50.898;4.662;2022-12-10T06:39:50;2.50;99.90
29803;DHT22;16702;50.898;4.662;2022-12-10T06:42:21;2.50;99.90
29803;DHT22;16702;50.898;4.662;2022-12-10T06:44:52;2.50;99.90
29803;DHT22;16702;50.898;4.662;2022-12-10T06:47:22;2.50;99.90
29803;DHT22;16702;50.898;4.662;2022-12-10T06:49:56;2.50;99.90
29803;DHT22;16702;50.898;4.662;2022-12-10T06:52:26;2.40;99.90
29803;DHT22;16702;50.898;4.662;2022-12-10T06:54:56;2.50;99.90
29803;DHT22;16702;50.898;4.662;2022-12-10T06:57:27;2.50;99.90
29803;DHT22;16702;50.898;4.662;2022-12-10T06:59:57;2.60;99.90
29803;DHT22;16702;50.898;4.662;2022-12-10T07:02:27;2.60;99.90
29803;DHT22;16702;50.898;4.662;2022-12-10T07:05:01;2.60;99.90
29803;DHT22;16702;50.898;4.662;2022-12-10T07:07:31;2.60;99.90
29803;DHT22;16702;50.898;4.662;2022-12-10T07:10:01;2.50;99.90
29803;DHT22;16702;50.898;4.662;2022-12-10T07:12:33;2.50;99.90
29803;DHT22;16702;50.898;4.662;2022-12-10T07:15:04;2.60;99.90
29803;DHT22;16702;50.898;4.662;2022-12-10T07:17:34;2.60;99.90
29803;DHT22;16702;50.898;4.662;2022-12-10T07:20:09;2.70;99.90
29803;DHT22;16702;50.898;4.662;2022-12-10T07:22:39;2.60;99.90
29803;DHT22;16702;50.898;4.662;2022-12-10T07:25:09;2.70;99.90
29803;DHT22;16702;50.898;4.662;2022-12-10T07:27:40;2.50;99.90
29803;DHT22;16702;50.898;4.662;2022-12-10T07:30:11;2.60;99.90
29803;DHT22;16702;50.898;4.662;2022-12-10T07:32:42;2.40;99.90
29803;DHT22;16702;50.898;4.662;2022-12-10T07:35:15;2.50;99.90
29803;DHT22;16702;50.898;4.662;2022-12-10T07:37:45;2.40;99.90
29803;DHT22;16702;50.898;4.662;2022-12-10T07:40:16;2.40;99.90
29803;DHT22;16702;50.898;4.662;2022-12-10T07:42:46;2.40;99.90
29803;DHT22;16702;50.898;4.662;2022-12-10T07:45:17;2.30;99.90
29803;DHT22;16702;50.898;4.662;2022-12-10T07:47:47;2.30;99.90
29803;DHT22;16702;50.898;4.662;2022-12-10T07:50:20;2.30;99.90
29803;DHT22;16702;50.898;4.662;2022-12-10T07:52:51;2.40;99.90
29803;DHT22;16702;50.898;4.662;2022-12-10T07:55:21;2.50;99.90
29803;DHT22;16702;50.898;4.662;2022-12-10T07:57:51;2.60;99.90
29803;DHT22;16702;50.898;4.662;2022-12-10T08:00:22;2.40;99.90
29803;DHT22;16702;50.898;4.662;2022-12-10T08:02:52;2.40;99.90
29803;DHT22;16702;50.898;4.662;2022-12-10T08:05:27;2.60;99.90
29803;DHT22;16702;50.898;4.662;2022-12-10T08:07:57;2.40;99.90
29803;DHT22;16702;50.898;4.662;2022-12-10T08:10:34;2.50;99.90
29803;DHT22;16702;50.898;4.662;2022-12-10T08:13:05;2.40;99.90
29803;DHT22;16702;50.898;4.662;2022-12-10T08:15:35;2.40;99.90
29803;DHT22;16702;50.898;4.662;2022-12-10T08:18:05;2.40;99.90
29803;DHT22;16702;50.898;4.662;2022-12-10T08:20:38;2.50;99.90
29803;DHT22;16702;50.898;4.662;2022-12-10T08:23:09;2.40;99.90
29803;DHT22;16702;50.898;4.662;2022-12-10T08:25:39;2.40;99.90
29803;DHT22;16702;50.898;4.662;2022-12-10T08:28:09;2.30;99.90
29803;DHT22;16702;50.898;4.662;2022-12-10T08:30:40;2.40;99.90
29803;DHT22;16702;50.898;4.662;2022-12-10T08:33:15;2.40;99.90
29803;DHT22;16702;50.898;4.662;2022-12-10T08:35:48;2.50;99.90
29803;DHT22;16702;50.898;4.662;2022-12-10T08:38:18;2.40;99.90
29803;DHT22;16702;50.898;4.662;2022-12-10T08:40:48;2.40;99.90
29803;DHT22;16702;50.898;4.662;2022-12-10T08:43:19;2.30;99.90
29803;DHT22;16702;50.898;4.662;2022-12-10T08:45:49;2.40;99.90
29803;DHT22;16702;50.898;4.662;2022-12-10T08:48:20;2.40;99.90
29803;DHT22;16702;50.898;4.662;2022-12-10T08:50:53;2.40;99.90
29803;DHT22;16702;50.898;4.662;2022-12-10T08:53:24;2.50;99.90
29803;DHT22;16702;50.898;4.662;2022-12-10T08:55:54;2.30;99.90
29803;DHT22;16702;50.898;4.662;2022-12-10T08:58:24;2.30;99.90
29803;DHT22;16702;50.898;4.662;2022-12-10T09:00:55;2.20;99.90
29803;DHT22;16702;50.898;4.662;2022-12-10T09:03:26;2.20;99.90
29803;DHT22;16702;50.898;4.662;2022-12-10T09:06:02;2.30;99.90
29803;DHT22;16702;50.898;4.662;2022-12-10T09:08:33;2.30;99.90
29803;DHT22;16702;50.898;4.662;2022-12-10T09:11:08;2.30;99.90
29803;DHT22;16702;50.898;4.662;2022-12-10T09:13:41;2.20;99.90
29803;DHT22;16702;50.898;4.662;2022-12-10T09:16:11;2.10;99.90
29803;DHT22;16702;50.898;4.662;2022-12-10T09:18:42;2.10;99.90
29803;DHT22;16702;50.898;4.662;2022-12-10T09:21:17;2.10;99.90
29803;DHT22;16702;50.898;4.662;2022-12-10T09:23:49;2.10;99.90
29803;DHT22;16702;50.898;4.662;2022-12-10T09:26:20;2.10;99.90
29803;DHT22;16702;50.898;4.662;2022-12-10T09:28:50;2.30;99.90
29803;DHT22;16702;50.898;4.662;2022-12-10T09:31:22;2.20;99.90
29803;DHT22;16702;50.898;4.662;2022-12-10T09:33:53;2.20;99.90
29803;DHT22;16702;50.898;4.662;2022-12-10T09:36:26;2.20;99.90
29803;DHT22;16702;50.898;4.662;2022-12-10T09:39:00;2.20;99.90
29803;DHT22;16702;50.898;4.662;2022-12-10T09:41:59;2.30;99.90
29803;DHT22;16702;50.898;4.662;2022-12-10T09:44:42;2.30;99.90
29803;DHT22;16702;50.898;4.662;2022-12-10T09:47:15;2.30;99.90
29803;DHT22;16702;50.898;4.662;2022-12-10T09:49:56;2.30;99.90
29803;DHT22;16702;50.898;4.662;2022-12-10T09:52:34;2.30;99.90
29803;DHT22;16702;50.898;4.662;2022-12-10T09:55:10;2.20;99.90
29803;DHT22;16702;50.898;4.662;2022-12-10T09:57:43;2.20;99.90
29803;DHT22;16702;50.898;4.662;2022-12-10T10:00:21;2.40;99.90
29803;DHT22;16702;50.898;4.662;2022-12-10T10:02:52;2.30;99.90
29803;DHT22;16702;50.898;4.662;2022-12-10T10:05:28;2.30;99.90
29803;DHT22;16702;50.898;4.662;2022-12-10T10:08:03;2.30;99.90
29803;DHT22;16702;50.898;4.662;2022-12-10T10:10:38;2.30;99.90
29803;DHT22;16702;50.898;4.662;2022-12-10T10:13:15;2.30;99.90
29803;DHT22;16702;50.898;4.662;2022-12-10T10:15:49;2.40;99.90
29803;DHT22;16702;50.898;4.662;2022-12-10T10:18:26;2.40;99.90
29803;DHT22;16702;50.898;4.662;2022-12-10T10:20:59;2.40;99.90
29803;DHT22;16702;50.898;4.662;2022-12-10T10:23:33;2.40;99.90
29803;DHT22;16702;50.898;4.662;2022-12-10T10:26:04;2.40;99.90
29803;DHT22;16702;50.898;4.662;2022-12-10T10:28:34;2.40;99.90
29803;DHT22;16702;50.898;4.662;2022-12-10T10:31:12;2.40;99.90
29803;DHT22;16702;50.898;4.662;2022-12-10T10:33:51;2.40;99.90
29803;DHT22;16702;50.898;4.662;2022-12-10T10:36:26;2.30;99.90
29803;DHT22;16702;50.898;4.662;2022-12-10T10:39:08;2.30;99.90
29803;DHT22;16702;50.898;4.662;2022-12-10T10:41:39;2.30;99.90
29803;DHT22;16702;50.898;4.662;2022-12-10T10:44:15;2.40;99.90
29803;DHT22;16702;50.898;4.662;2022-12-10T10:46:48;2.40;99.90
29803;DHT22;16702;50.898;4.662;2022-12-10T10:49:23;2.40;99.90
29803;DHT22;16702;50.898;4.662;2022-12-10T10:51:59;2.40;99.90
29803;DHT22;16702;50.898;4.662;2022-12-10T10:54:40;2.40;99.90
29803;DHT22;16702;50.898;4.662;2022-12-10T10:57:12;2.50;99.90
29803;DHT22;16702;50.898;4.662;2022-12-10T10:59:46;2.40;99.90
29803;DHT22;16702;50.898;4.662;2022-12-10T11:02:20;2.50;99.90
29803;DHT22;16702;50.898;4.662;2022-12-10T11:04:52;2.40;99.90
29803;DHT22;16702;50.898;4.662;2022-12-10T11:07:34;2.60;99.90
29803;DHT22;16702;50.898;4.662;2022-12-10T11:10:17;2.30;99.90
29803;DHT22;16702;50.898;4.662;2022-12-10T11:12:55;2.60;99.90
29803;DHT22;16702;50.898;4.662;2022-12-10T11:15:31;2.50;99.90
29803;DHT22;16702;50.898;4.662;2022-12-10T11:18:09;2.50;99.90
29803;DHT22;16702;50.898;4.662;2022-12-10T11:20:57;2.50;99.90
29803;DHT22;16702;50.898;4.662;2022-12-10T11:23:29;2.50;99.90
29803;DHT22;16702;50.898;4.662;2022-12-10T11:29:24;2.60;99.90
29803;DHT22;16702;50.898;4.662;2022-12-10T11:32:08;2.60;99.90
29803;DHT22;16702;50.898;4.662;2022-12-10T11:34:50;2.60;99.90
29803;DHT22;16702;50.898;4.662;2022-12-10T11:37:29;2.70;99.90
29803;DHT22;16702;50.898;4.662;2022-12-10T11:40:24;2.70;99.90
29803;DHT22;16702;50.898;4.662;2022-12-10T11:43:14;2.70;99.90
29803;DHT22;16702;50.898;4.662;2022-12-10T11:46:01;2.60;99.90
29803;DHT22;16702;50.898;4.662;2022-12-10T11:48:46;2.60;99.90
29803;DHT22;16702;50.898;4.662;2022-12-10T11:51:25;2.60;99.90
29803;DHT22;16702;50.898;4.662;2022-12-10T11:54:14;2.70;99.90
29803;DHT22;16702;50.898;4.662;2022-12-10T11:56:56;2.70;99.90
29803;DHT22;16702;50.898;4.662;2022-12-10T11:59:36;2.70;99.90
29803;DHT22;16702;50.898;4.662;2022-12-10T12:05:52;2.80;99.90
29803;DHT22;16702;50.898;4.662;2022-12-10T12:08:41;2.70;99.90
29803;DHT22;16702;50.898;4.662;2022-12-10T12:11:20;2.70;99.90
29803;DHT22;16702;50.898;4.662;2022-12-10T12:13:57;2.80;99.90
29803;DHT22;16702;50.898;4.662;2022-12-10T12:16:37;2.80;99.90
29803;DHT22;16702;50.898;4.662;2022-12-10T12:19:14;2.90;99.90
29803;DHT22;16702;50.898;4.662;2022-12-10T12:21:49;2.80;99.90
29803;DHT22;16702;50.898;4.662;2022-12-10T12:24:24;2.90;99.90
29803;DHT22;16702;50.898;4.662;2022-12-10T12:26:58;2.80;99.90
29803;DHT22;16702;50.898;4.662;2022-12-10T12:29:33;2.90;99.90
29803;DHT22;16702;50.898;4.662;2022-12-10T12:32:11;2.90;99.90
29803;DHT22;16702;50.898;4.662;2022-12-10T12:34:49;2.90;99.90
29803;DHT22;16702;50.898;4.662;2022-12-10T12:37:32;2.90;99.90
29803;DHT22;16702;50.898;4.662;2022-12-10T12:40:09;3.00;99.90
29803;DHT22;16702;50.898;4.662;2022-12-10T12:42:45;2.90;99.90
29803;DHT22;16702;50.898;4.662;2022-12-10T12:45:20;3.00;99.90
29803;DHT22;16702;50.898;4.662;2022-12-10T12:47:58;3.00;99.90
29803;DHT22;16702;50.898;4.662;2022-12-10T12:50:43;3.00;99.90
29803;DHT22;16702;50.898;4.662;2022-12-10T12:53:15;2.90;99.90
29803;DHT22;16702;50.898;4.662;2022-12-10T12:55:53;3.00;99.90
29803;DHT22;16702;50.898;4.662;2022-12-10T12:58:33;3.00;99.90
29803;DHT22;16702;50.898;4.662;2022-12-10T13:01:12;3.10;99.90
29803;DHT22;16702;50.898;4.662;2022-12-10T13:03:50;3.10;99.90
29803;DHT22;16702;50.898;4.662;2022-12-10T13:06:23;3.00;99.90
29803;DHT22;16702;50.898;4.662;2022-12-10T13:08:58;3.20;99.90
29803;DHT22;16702;50.898;4.662;2022-12-10T13:11:46;3.10;99.90
29803;DHT22;16702;50.898;4.662;2022-12-10T13:14:36;3.20;99.90
29803;DHT22;16702;50.898;4.662;2022-12-10T13:17:27;3.10;99.90
29803;DHT22;16702;50.898;4.662;2022-12-10T13:20:31;3.10;99.90
29803;DHT22;16702;50.898;4.662;2022-12-10T13:23:03;3.10;99.90
29803;DHT22;16702;50.898;4.662;2022-12-10T13:25:40;3.30;99.90
29803;DHT22;16702;50.898;4.662;2022-12-10T13:28:26;3.10;99.90
29803;DHT22;16702;50.898;4.662;2022-12-10T13:31:16;3.10;99.90
29803;DHT22;16702;50.898;4.662;2022-12-10T13:33:50;3.10;99.90
29803;DHT22;16702;50.898;4.662;2022-12-10T13:36:35;3.20;99.90
29803;DHT22;16702;50.898;4.662;2022-12-10T13:39:21;3.20;99.90
29803;DHT22;16702;50.898;4.662;2022-12-10T13:42:28;3.30;99.90
29803;DHT22;16702;50.898;4.662;2022-12-10T13:45:33;3.20;99.90
29803;DHT22;16702;50.898;4.662;2022-12-10T13:48:31;3.30;99.90
29803;DHT22;16702;50.898;4.662;2022-12-10T13:51:30;3.40;99.90
29803;DHT22;16702;50.898;4.662;2022-12-10T13:57:36;3.30;99.90
29803;DHT22;16702;50.898;4.662;2022-12-10T14:00:13;3.30;99.90
29803;DHT22;16702;50.898;4.662;2022-12-10T14:03:09;3.30;99.90
29803;DHT22;16702;50.898;4.662;2022-12-10T14:05:57;3.40;99.90
29803;DHT22;16702;50.898;4.662;2022-12-10T14:08:35;3.30;99.90
29803;DHT22;16702;50.898;4.662;2022-12-10T14:11:15;3.30;99.90
29803;DHT22;16702;50.898;4.662;2022-12-10T14:13:52;3.30;99.90
29803;DHT22;16702;50.898;4.662;2022-12-10T14:16:28;3.30;99.90
29803;DHT22;16702;50.898;4.662;2022-12-10T14:19:02;3.30;99.90
29803;DHT22;16702;50.898;4.662;2022-12-10T14:21:36;3.30;99.90
29803;DHT22;16702;50.898;4.662;2022-12-10T14:24:31;3.20;99.90
29803;DHT22;16702;50.898;4.662;2022-12-10T14:27:11;3.20;99.90
29803;DHT22;16702;50.898;4.662;2022-12-10T14:29:47;3.40;99.90
29803;DHT22;16702;50.898;4.662;2022-12-10T14:32:20;3.40;99.90
29803;DHT22;16702;50.898;4.662;2022-12-10T14:34:55;3.40;99.90
29803;DHT22;16702;50.898;4.662;2022-12-10T14:37:28;3.30;99.90
29803;DHT22;16702;50.898;4.662;2022-12-10T14:40:05;3.40;99.90
29803;DHT22;16702;50.898;4.662;2022-12-10T14:42:38;3.40;99.90
29803;DHT22;16702;50.898;4.662;2022-12-10T14:45:13;3.40;99.90
29803;DHT22;16702;50.898;4.662;2022-12-10T14:47:49;3.40;99.90
29803;DHT22;16702;50.898;4.662;2022-12-10T14:50:19;3.50;99.90
29803;DHT22;16702;50.898;4.662;2022-12-10T14:52:51;3.40;99.90
29803;DHT22;16702;50.898;4.662;2022-12-10T14:55:24;3.50;99.90
29803;DHT22;16702;50.898;4.662;2022-12-10T14:57:57;3.40;99.90
29803;DHT22;16702;50.898;4.662;2022-12-10T15:00:29;3.40;99.90
29803;DHT22;16702;50.898;4.662;2022-12-10T15:03:17;3.40;99.90
29803;DHT22;16702;50.898;4.662;2022-12-10T15:05:55;3.40;99.90
29803;DHT22;16702;50.898;4.662;2022-12-10T15:08:26;3.30;99.90
29803;DHT22;16702;50.898;4.662;2022-12-10T15:11:01;3.40;99.90
29803;DHT22;16702;50.898;4.662;2022-12-10T15:13:35;3.30;99.90
29803;DHT22;16702;50.898;4.662;2022-12-10T15:16:16;3.40;99.90
29803;DHT22;16702;50.898;4.662;2022-12-10T15:18:47;3.30;99.90
29803;DHT22;16702;50.898;4.662;2022-12-10T15:21:21;3.30;99.90
29803;DHT22;16702;50.898;4.662;2022-12-10T15:24:09;3.40;99.90
29803;DHT22;16702;50.898;4.662;2022-12-10T15:26:49;3.30;99.90
29803;DHT22;16702;50.898;4.662;2022-12-10T15:29:31;3.50;99.90
29803;DHT22;16702;50.898;4.662;2022-12-10T15:32:12;3.40;99.90
29803;DHT22;16702;50.898;4.662;2022-12-10T15:34:47;3.30;99.90
29803;DHT22;16702;50.898;4.662;2022-12-10T15:37:21;3.40;99.90
29803;DHT22;16702;50.898;4.662;2022-12-10T15:39:54;3.40;99.90
29803;DHT22;16702;50.898;4.662;2022-12-10T15:42:37;3.40;99.90
29803;DHT22;16702;50.898;4.662;2022-12-10T15:45:18;3.50;99.90
29803;DHT22;16702;50.898;4.662;2022-12-10T15:47:51;3.40;99.90
29803;DHT22;16702;50.898;4.662;2022-12-10T15:50:22;3.30;99.90
29803;DHT22;16702;50.898;4.662;2022-12-10T15:52:53;3.40;99.90
29803;DHT22;16702;50.898;4.662;2022-12-10T15:55:23;3.40;99.90
29803;DHT22;16702;50.898;4.662;2022-12-10T15:57:56;3.30;99.90
29803;DHT22;16702;50.898;4.662;2022-12-10T16:00:27;3.30;99.90
29803;DHT22;16702;50.898;4.662;2022-12-10T16:02:59;3.40;99.90
29803;DHT22;16702;50.898;4.662;2022-12-10T16:05:32;3.20;99.90
29803;DHT22;16702;50.898;4.662;2022-12-10T16:08:09;3.30;99.90
29803;DHT22;16702;50.898;4.662;2022-12-10T16:10:42;3.30;99.90
29803;DHT22;16702;50.898;4.662;2022-12-10T16:13:18;3.30;99.90
29803;DHT22;16702;50.898;4.662;2022-12-10T16:15:51;3.30;99.90
29803;DHT22;16702;50.898;4.662;2022-12-10T16:18:21;3.30;99.90
29803;DHT22;16702;50.898;4.662;2022-12-10T16:20:58;3.30;99.90
29803;DHT22;16702;50.898;4.662;2022-12-10T16:23:28;3.40;99.90
29803;DHT22;16702;50.898;4.662;2022-12-10T16:25:59;3.30;99.90
29803;DHT22;16702;50.898;4.662;2022-12-10T16:28:32;3.30;99.90
29803;DHT22;16702;50.898;4.662;2022-12-10T16:31:03;3.40;99.90
29803;DHT22;16702;50.898;4.662;2022-12-10T16:33:33;3.50;99.90
29803;DHT22;16702;50.898;4.662;2022-12-10T16:36:04;3.50;99.90
29803;DHT22;16702;50.898;4.662;2022-12-10T16:38:35;3.50;99.90
29803;DHT22;16702;50.898;4.662;2022-12-10T16:41:14;3.50;99.90
29803;DHT22;16702;50.898;4.662;2022-12-10T16:43:47;3.50;99.90